aviador You're here:

EPLB Decoded Metar

in
Report Time2017-12-11 22:30:00
UTC Time2017-12-11 22:58:31
Flight Rules vfr VFR
Wind180° at 08 kt
W.Rank180° ranks 36
Current wind is above 180° avg. (6.6)
Visibility9999 m
Phenomena:N/A
Clouds:N/A
Expected CloudBase > 1,200 ft AGL from Temp-Dew spread
CeilingNone
Temp07°C
Dew Point04°C (81% RH)
AAT2.8°C
QNH0997 hPa
Raw Report
EPLB 112230Z 18008KT CAVOK 07/04 Q0997=

Extra information for EPLB:More info

Social comments